createdAt,value
2022-12-23T06:37:29.871Z,95989.72
2022-12-23T06:42:34.543Z,96004.16
2022-12-23T06:47:37.549Z,95977.91
2022-12-23T06:52:39.755Z,96007.63
2022-12-23T06:57:41.858Z,96014.84
2022-12-23T07:02:44.248Z,96011.78
2022-12-23T07:07:46.732Z,96017.03
2022-12-23T07:12:50.876Z,96015.78
2022-12-23T07:17:54.836Z,96024.31
2022-12-23T07:22:57.625Z,96005.63
2022-12-23T07:27:59.845Z,96007.16
2022-12-23T07:33:02.160Z,96002.91
2022-12-23T07:38:04.451Z,95994.47
2022-12-23T07:43:06.837Z,96001.44
2022-12-23T07:48:09.039Z,96012.44
2022-12-23T07:53:11.278Z,95989.69
2022-12-23T07:58:13.856Z,95988.78
2022-12-23T08:03:16.080Z,96010.28
2022-12-23T08:08:18.273Z,96019.56
2022-12-23T08:13:20.770Z,96002.41
2022-12-23T08:18:22.956Z,95993.16
2022-12-23T08:23:26.749Z,95995.88
2022-12-23T08:28:29.798Z,95986.16
2022-12-23T08:33:32.526Z,95979.03
2022-12-23T08:38:35.870Z,96000.69
2022-12-23T08:43:38.705Z,95996.88
2022-12-23T08:48:46.968Z,95979.72
2022-12-23T08:53:59.654Z,95990.00
2022-12-23T08:59:02.732Z,95984.91
2022-12-23T09:04:06.532Z,95958.00
2022-12-23T09:09:11.479Z,95942.84
2022-12-23T09:14:13.767Z,95944.22
2022-12-23T09:19:16.015Z,95919.91
2022-12-23T09:24:18.167Z,95935.34
2022-12-23T09:29:20.526Z,95921.81
2022-12-23T09:34:22.801Z,95906.84
2022-12-23T09:39:24.957Z,95910.31
2022-12-23T09:44:51.497Z,95902.97
2022-12-23T09:50:10.649Z,95891.78
2022-12-23T09:55:14.508Z,95889.25
2022-12-23T10:00:21.902Z,95889.53
2022-12-23T10:05:44.132Z,95886.94
2022-12-23T10:10:49.005Z,95893.63
2022-12-23T10:15:55.269Z,95899.00
2022-12-23T10:21:06.382Z,95885.84
2022-12-23T10:26:24.371Z,95887.16
2022-12-23T10:31:41.306Z,95887.69
2022-12-23T10:37:00.500Z,95887.44
2022-12-23T10:42:11.757Z,95903.72
2022-12-23T10:47:24.789Z,95907.78
2022-12-23T10:52:34.368Z,95914.81
2022-12-23T10:57:36.945Z,95907.13
2022-12-23T11:02:44.992Z,95900.41
2022-12-23T11:07:47.569Z,95906.38
2022-12-23T11:12:53.062Z,95908.94
2022-12-23T11:18:24.923Z,95920.06
2022-12-23T11:23:30.585Z,95915.94
2022-12-23T11:28:35.937Z,95901.16
2022-12-23T11:33:42.062Z,95890.88
2022-12-23T11:39:04.861Z,95899.56
2022-12-23T11:44:16.307Z,95904.91
2022-12-23T11:49:31.887Z,95906.88
2022-12-23T11:54:34.616Z,95883.78
2022-12-23T11:59:46.444Z,95885.53
2022-12-23T12:05:00.261Z,95901.28
2022-12-23T12:10:03.460Z,95883.44
2022-12-23T12:15:07.276Z,95900.03
2022-12-23T12:20:44.548Z,95896.69
2022-12-23T12:25:51.996Z,95900.97
2022-12-23T12:31:04.985Z,95899.63
2022-12-23T12:36:12.840Z,95908.88
2022-12-23T12:42:07.385Z,95916.56
2022-12-23T12:47:52.244Z,95927.84
2022-12-23T12:52:41.622Z,95928.78
2022-12-23T12:57:44.259Z,95923.53
2022-12-23T13:03:23.836Z,95943.72
2022-12-23T13:08:26.117Z,95945.00
2022-12-23T13:13:52.717Z,95943.78
2022-12-23T13:19:00.958Z,95947.69
2022-12-23T13:24:31.681Z,95958.84
2022-12-23T13:29:53.099Z,95956.66
2022-12-23T13:35:24.823Z,95949.56
2022-12-23T13:41:22.287Z,95943.06
2022-12-23T13:46:49.923Z,95952.09
2022-12-23T13:52:03.367Z,95958.22
2022-12-23T13:57:25.379Z,95952.97
2022-12-23T14:02:36.551Z,95942.28
2022-12-23T14:07:38.877Z,95945.25
2022-12-23T14:12:43.289Z,95931.97
2022-12-23T14:18:16.036Z,95941.97
2022-12-23T14:23:46.293Z,95938.91
2022-12-23T14:29:30.423Z,95954.25
2022-12-23T14:34:34.419Z,95949.28
2022-12-23T14:39:36.830Z,95949.56
2022-12-23T14:44:38.824Z,95969.19
2022-12-23T14:49:44.721Z,95954.41
2022-12-23T14:55:06.393Z,95967.81
2022-12-23T15:00:10.650Z,95971.84
2022-12-23T15:05:13.320Z,95970.34
2022-12-23T15:10:25.888Z,95973.69
2022-12-23T15:15:30.072Z,95970.34
2022-12-23T15:20:33.325Z,95972.09
2022-12-23T15:25:49.169Z,95974.28
2022-12-23T15:30:56.640Z,95969.97
2022-12-23T15:36:02.406Z,95986.97
2022-12-23T15:41:16.323Z,95978.63
2022-12-23T15:46:29.719Z,95982.88
2022-12-23T15:57:03.323Z,95978.91
2022-12-23T16:02:58.230Z,95977.50
2022-12-23T16:08:16.422Z,95984.53
2022-12-23T16:13:20.843Z,95987.31
2022-12-23T16:18:32.948Z,95977.19
2022-12-23T16:23:37.510Z,95985.34
2022-12-23T16:28:44.033Z,95983.19
2022-12-23T16:33:51.810Z,95981.16
2022-12-23T16:39:06.649Z,96006.94
2022-12-23T16:44:09.159Z,96008.72
2022-12-23T16:49:20.179Z,96001.97
2022-12-23T16:54:22.547Z,96012.19
2022-12-23T16:59:26.139Z,96001.66
2022-12-23T17:04:28.277Z,96029.25
2022-12-23T17:09:30.435Z,96031.19
2022-12-23T17:14:33.008Z,96031.44
2022-12-23T17:19:35.072Z,96020.72
2022-12-23T17:24:37.167Z,96010.59
2022-12-23T17:29:39.438Z,96018.78
2022-12-23T17:34:42.705Z,96033.66
2022-12-23T17:39:45.950Z,96032.44
2022-12-23T17:44:48.534Z,96019.56
2022-12-23T17:49:51.608Z,96021.72
2022-12-23T17:54:53.780Z,96022.91
2022-12-23T17:59:57.126Z,96010.84
2022-12-23T18:05:00.244Z,96015.28
2022-12-23T18:10:02.520Z,96038.44
2022-12-23T18:15:06.839Z,96031.34
2022-12-23T18:20:15.540Z,96020.06
2022-12-23T18:25:21.442Z,96037.38
2022-12-23T18:30:23.714Z,96047.47
2022-12-23T18:35:39.754Z,96035.34
2022-12-23T18:40:43.250Z,96060.09
2022-12-23T18:45:52.454Z,96039.94
2022-12-23T18:50:55.713Z,96034.63
2022-12-23T18:55:57.931Z,96039.38
2022-12-23T19:01:00.029Z,96039.81
2022-12-23T19:06:06.870Z,96053.47
2022-12-23T19:11:15.165Z,96042.78
2022-12-23T19:16:21.941Z,96044.16
2022-12-23T19:21:24.361Z,96044.91
2022-12-23T19:26:26.506Z,96051.34
2022-12-23T19:31:30.068Z,96042.81
2022-12-23T19:36:32.360Z,96033.59
2022-12-23T19:41:34.628Z,96049.63
2022-12-23T19:46:36.979Z,96023.44
2022-12-23T19:51:39.111Z,96034.91
2022-12-23T19:56:41.528Z,96034.78
2022-12-23T20:01:45.785Z,96021.38
2022-12-23T20:06:48.321Z,96015.22
2022-12-23T20:11:53.272Z,96028.88
2022-12-23T20:16:55.490Z,96024.03
2022-12-23T20:21:57.747Z,96021.41
2022-12-23T20:27:00.032Z,96033.38
2022-12-23T20:32:02.166Z,96033.25
2022-12-23T20:37:04.884Z,96009.72
2022-12-23T20:42:06.977Z,96010.50
2022-12-23T20:47:09.085Z,96021.34
2022-12-23T20:52:11.299Z,96032.03
2022-12-23T20:57:13.546Z,96034.41
2022-12-23T21:02:16.979Z,96031.50
2022-12-23T21:07:19.160Z,96041.28
2022-12-23T21:12:21.375Z,96021.81
2022-12-23T21:17:24.031Z,96029.31
2022-12-23T21:22:26.815Z,96028.34
2022-12-23T21:27:29.023Z,96038.78
2022-12-23T21:32:31.905Z,96029.56
2022-12-23T21:37:34.139Z,96032.81
2022-12-23T21:42:36.413Z,96031.25
2022-12-23T21:47:39.409Z,96040.41
2022-12-23T21:52:41.472Z,96013.53
2022-12-23T21:57:44.747Z,96022.38
2022-12-23T22:02:47.069Z,96013.47
2022-12-23T22:07:49.281Z,96021.56
2022-12-23T22:12:51.324Z,96032.47
2022-12-23T22:17:53.562Z,96000.66
2022-12-23T22:22:56.143Z,96011.50
2022-12-23T22:27:58.293Z,96013.41
2022-12-23T22:33:00.352Z,96031.56
2022-12-23T22:38:02.549Z,96047.31
2022-12-23T22:43:04.823Z,96039.94
2022-12-23T22:48:07.128Z,96053.34
2022-12-23T22:53:13.701Z,96060.34
2022-12-23T22:58:15.940Z,96040.81
2022-12-23T23:03:18.134Z,96045.75
2022-12-23T23:08:20.287Z,96053.38
2022-12-23T23:13:22.620Z,96046.09
2022-12-23T23:18:26.465Z,96037.06
2022-12-23T23:23:28.640Z,96050.16
2022-12-23T23:28:31.267Z,96042.66
2022-12-23T23:33:33.359Z,96034.19
2022-12-23T23:38:35.629Z,96030.63
2022-12-23T23:43:37.718Z,96031.34
2022-12-23T23:48:39.790Z,96036.13
2022-12-23T23:53:41.871Z,96048.97
2022-12-23T23:58:44.152Z,96039.16
